MiSS Christi — WBM6513 — position and weather

sailwx.info

Track history (hours):
 
Tides and Currents Weather Stations Pressure Air Temp Water Temp Dewpoint Dewpoint Depression Visibility Wind Speed Wind Dir Waves Ship Positions

MiSS Christi

Owner: MISS CHRISTI INC, WEST HILLS, CA. More information available from US FCC via Universal Licensing System and Coast Guard Vessel Documentation Center.

Last reported at 2017-Oct-19 23:50 UTC. Time now 2017-Oct-20 10:54 UTC.
Position N 33°44' W 118°16'.

Length 15 m; draft 1.5 m.

Type: Passenger vessel. MMSI: 367311590.

Date/timePositionNaut miles runAvg speedWind from/ knotsBaromVisibWave heightAir tempDewpointWater temp
2017-Oct-19 23:50N 33°44' W 118°16'3 8.8
2017-Oct-19 23:30N 33°41' W 118°16'3 0.4
2017-Oct-19 15:04N 33°38' W 118°18'218.5
2017-Oct-19 14:59N 33°40' W 118°17'4 8.8
2017-Oct-19 14:29N 33°44' W 118°16'0 0.1
2017-Oct-19 14:00N 33°44' W 118°16'0 0.0
2017-Oct-19 00:03N 33°44' W 118°16'0 0.0
2017-Oct-19 00:00N 33°44' W 118°16'4 7.4
2017-Oct-18 23:30N 33°40' W 118°17'1418.1
2017-Oct-18 22:45N 33°30' W 118°27'4 2.4
2017-Oct-18 21:11N 33°27' W 118°29'0 0.0
2017-Oct-18 21:00N 33°27' W 118°29'0 0.0
2017-Oct-18 20:19N 33°27' W 118°29'0 0.0
2017-Oct-18 19:59N 33°27' W 118°29'0 0.0
2017-Oct-18 16:17N 33°27' W 118°29'0 0.2
2017-Oct-18 16:00N 33°27' W 118°29'1417.8
2017-Oct-18 15:13N 33°38' W 118°20'417.9
2017-Oct-18 15:00N 33°41' W 118°17'3 3.1
2017-Oct-18 14:00N 33°44' W 118°16'0 0.0
2017-Oct-17 23:54N 33°44' W 118°16'410.2
2017-Oct-17 23:29N 33°40' W 118°17'917.5
2017-Oct-17 23:00N 33°33' W 118°23'816.2
2017-Oct-17 22:30N 33°27' W 118°29'0 0.0
2017-Oct-17 21:59N 33°27' W 118°29'0 0.1
2017-Oct-17 20:59N 33°27' W 118°29'0 0.0
2017-Oct-17 20:30N 33°27' W 118°29'0 0.0
2017-Oct-17 19:19N 33°27' W 118°29'0 0.0
2017-Oct-17 19:01N 33°27' W 118°29'7 2.0
2017-Oct-17 15:38N 33°32' W 118°24'218.3
2017-Oct-17 15:30N 33°34' W 118°23'918.1
2017-Oct-17 15:00N 33°41' W 118°16'3 6.0
2017-Oct-17 14:30N 33°44' W 118°16'0 0.0
2017-Oct-17 14:00N 33°44' W 118°16'0 0.0
2017-Oct-16 23:53N 33°44' W 118°16'510.8
2017-Oct-16 23:24N 33°39' W 118°18'1610.8
2017-Oct-16 21:57N 33°27' W 118°29'0 0.1
2017-Oct-16 21:30N 33°27' W 118°29'0 0.0
2017-Oct-16 21:00N 33°27' W 118°29'0 0.0
2017-Oct-16 20:28N 33°27' W 118°29'0 0.0
2017-Oct-16 19:58N 33°27' W 118°29'0 0.0
2017-Oct-16 19:30N 33°27' W 118°29'0 0.0
2017-Oct-16 18:50N 33°27' W 118°29'0 0.0
2017-Oct-16 18:28N 33°27' W 118°29'0 0.0
2017-Oct-16 18:00N 33°27' W 118°29'0 0.0
2017-Oct-16 17:30N 33°27' W 118°29'0 0.0
2017-Oct-16 17:00N 33°27' W 118°29'0 0.0
2017-Oct-16 16:31N 33°27' W 118°29'0 0.1
2017-Oct-16 16:00N 33°27' W 118°29'714.1
2017-Oct-16 15:30N 33°32' W 118°24'816.8
2017-Oct-16 15:00N 33°39' W 118°18'5 9.3
2017-Oct-16 14:26N 33°44' W 118°16'0 0.1
2017-Oct-16 13:30N 33°44' W 118°16'  
2017-Oct-13 20:59N 33°44' W 118°16'510.7
2017-Oct-13 20:30N 33°39' W 118°18'916.7
2017-Oct-13 19:58N 33°32' W 118°24'714.4
2017-Oct-13 19:30N 33°27' W 118°29'0 0.0
2017-Oct-13 18:54N 33°27' W 118°29'0 0.2
2017-Oct-13 17:00N 33°27' W 118°29'1315.1
2017-Oct-13 16:10N 33°37' W 118°20'315.3
2017-Oct-13 15:59N 33°40' W 118°18'5 9.8
2017-Oct-13 15:30N 33°44' W 118°16'0 0.1
2017-Oct-13 15:00N 33°44' W 118°16'0 0.0
2017-Oct-13 14:30N 33°44' W 118°16'0 0.0
2017-Oct-12 23:49N 33°44' W 118°16'411.7
2017-Oct-12 23:30N 33°41' W 118°17'1 0.1
2017-Oct-12 15:10N 33°40' W 118°17'317.8
2017-Oct-12 15:00N 33°42' W 118°15'2 4.2
2017-Oct-12 14:29N 33°44' W 118°16'0 0.0
2017-Oct-11 23:56N 33°44' W 118°16'4 9.7
2017-Oct-11 23:30N 33°40' W 118°17'917.8
2017-Oct-11 22:59N 33°32' W 118°23'715.0
2017-Oct-11 22:30N 33°27' W 118°29'0 0.0
2017-Oct-11 22:00N 33°27' W 118°29'0 0.0
2017-Oct-11 21:30N 33°27' W 118°29'0 0.0
2017-Oct-11 20:55N 33°27' W 118°29'0 0.0
2017-Oct-11 19:36N 33°27' W 118°29'0 0.0
2017-Oct-11 19:24N 33°27' W 118°29'20 1.1
2017-Oct-10 23:57N 33°44' W 118°16'510.9
2017-Oct-10 23:30N 33°39' W 118°18'816.5
2017-Oct-10 23:01N 33°33' W 118°23'812.1
2017-Oct-10 22:22N 33°27' W 118°29'0 0.0
2017-Oct-10 21:56N 33°27' W 118°29'0 0.0
2017-Oct-10 20:33N 33°27' W 118°29'0 0.0
2017-Oct-10 20:28N 33°27' W 118°29'0 0.0
2017-Oct-10 19:08N 33°27' W 118°29'0 0.0
2017-Oct-10 18:44N 33°27' W 118°29'0 0.0
2017-Oct-10 18:29N 33°27' W 118°29'0 0.0
2017-Oct-10 17:15N 33°27' W 118°29'0 0.0
2017-Oct-10 16:57N 33°27' W 118°29'0 0.0
2017-Oct-10 16:30N 33°27' W 118°29'0 0.6
2017-Oct-10 16:00N 33°27' W 118°29'918.5
2017-Oct-10 15:30N 33°33' W 118°21'918.9
2017-Oct-10 15:01N 33°42' W 118°16'2 2.4
2017-Oct-10 14:00N 33°44' W 118°16'0 0.1
2017-Oct-10 13:30N 33°44' W 118°16'0 0.0
2017-Oct-09 23:55N 33°44' W 118°16'  
Track history (hours):
 
Tides and Currents Weather Stations Pressure Air Temp Water Temp Dewpoint Dewpoint Depression Visibility Wind Speed Wind Dir Waves Ship Positions

MiSS Christi

Owner: MISS CHRISTI INC, WEST HILLS, CA. More information available from US FCC via Universal Licensing System and Coast Guard Vessel Documentation Center.

Last reported at 2017-Oct-19 23:50 UTC. Time now 2017-Oct-20 10:54 UTC.
Position N 33°44' W 118°16'.

Length 15 m; draft 1.5 m.

Type: Passenger vessel. MMSI: 367311590.

Date/timePositionNaut miles runAvg speedWind from/ knotsBaromVisibWave heightAir tempDewpointWater temp
2017-Oct-19 23:50N 33°44' W 118°16'3 8.8
2017-Oct-19 23:30N 33°41' W 118°16'3 0.4
2017-Oct-19 15:04N 33°38' W 118°18'218.5
2017-Oct-19 14:59N 33°40' W 118°17'4 8.8
2017-Oct-19 14:29N 33°44' W 118°16'0 0.1
2017-Oct-19 14:00N 33°44' W 118°16'0 0.0
2017-Oct-19 00:03N 33°44' W 118°16'0 0.0
2017-Oct-19 00:00N 33°44' W 118°16'4 7.4
2017-Oct-18 23:30N 33°40' W 118°17'1418.1
2017-Oct-18 22:45N 33°30' W 118°27'4 2.4
2017-Oct-18 21:11N 33°27' W 118°29'0 0.0
2017-Oct-18 21:00N 33°27' W 118°29'0 0.0
2017-Oct-18 20:19N 33°27' W 118°29'0 0.0
2017-Oct-18 19:59N 33°27' W 118°29'0 0.0
2017-Oct-18 16:17N 33°27' W 118°29'0 0.2
2017-Oct-18 16:00N 33°27' W 118°29'1417.8
2017-Oct-18 15:13N 33°38' W 118°20'417.9
2017-Oct-18 15:00N 33°41' W 118°17'3 3.1
2017-Oct-18 14:00N 33°44' W 118°16'0 0.0
2017-Oct-17 23:54N 33°44' W 118°16'410.2
2017-Oct-17 23:29N 33°40' W 118°17'917.5
2017-Oct-17 23:00N 33°33' W 118°23'816.2
2017-Oct-17 22:30N 33°27' W 118°29'0 0.0
2017-Oct-17 21:59N 33°27' W 118°29'0 0.1
2017-Oct-17 20:59N 33°27' W 118°29'0 0.0
2017-Oct-17 20:30N 33°27' W 118°29'0 0.0
2017-Oct-17 19:19N 33°27' W 118°29'0 0.0
2017-Oct-17 19:01N 33°27' W 118°29'7 2.0
2017-Oct-17 15:38N 33°32' W 118°24'218.3
2017-Oct-17 15:30N 33°34' W 118°23'918.1
2017-Oct-17 15:00N 33°41' W 118°16'3 6.0
2017-Oct-17 14:30N 33°44' W 118°16'0 0.0
2017-Oct-17 14:00N 33°44' W 118°16'0 0.0
2017-Oct-16 23:53N 33°44' W 118°16'510.8
2017-Oct-16 23:24N 33°39' W 118°18'1610.8
2017-Oct-16 21:57N 33°27' W 118°29'0 0.1
2017-Oct-16 21:30N 33°27' W 118°29'0 0.0
2017-Oct-16 21:00N 33°27' W 118°29'0 0.0
2017-Oct-16 20:28N 33°27' W 118°29'0 0.0
2017-Oct-16 19:58N 33°27' W 118°29'0 0.0
2017-Oct-16 19:30N 33°27' W 118°29'0 0.0
2017-Oct-16 18:50N 33°27' W 118°29'0 0.0
2017-Oct-16 18:28N 33°27' W 118°29'0 0.0
2017-Oct-16 18:00N 33°27' W 118°29'0 0.0
2017-Oct-16 17:30N 33°27' W 118°29'0 0.0
2017-Oct-16 17:00N 33°27' W 118°29'0 0.0
2017-Oct-16 16:31N 33°27' W 118°29'0 0.1
2017-Oct-16 16:00N 33°27' W 118°29'714.1
2017-Oct-16 15:30N 33°32' W 118°24'816.8
2017-Oct-16 15:00N 33°39' W 118°18'5 9.3
2017-Oct-16 14:26N 33°44' W 118°16'0 0.1
2017-Oct-16 13:30N 33°44' W 118°16'  
2017-Oct-13 20:59N 33°44' W 118°16'510.7
2017-Oct-13 20:30N 33°39' W 118°18'916.7
2017-Oct-13 19:58N 33°32' W 118°24'714.4
2017-Oct-13 19:30N 33°27' W 118°29'0 0.0
2017-Oct-13 18:54N 33°27' W 118°29'0 0.2
2017-Oct-13 17:00N 33°27' W 118°29'1315.1
2017-Oct-13 16:10N 33°37' W 118°20'315.3
2017-Oct-13 15:59N 33°40' W 118°18'5 9.8
2017-Oct-13 15:30N 33°44' W 118°16'0 0.1
2017-Oct-13 15:00N 33°44' W 118°16'0 0.0
2017-Oct-13 14:30N 33°44' W 118°16'0 0.0
2017-Oct-12 23:49N 33°44' W 118°16'411.7
2017-Oct-12 23:30N 33°41' W 118°17'1 0.1
2017-Oct-12 15:10N 33°40' W 118°17'317.8
2017-Oct-12 15:00N 33°42' W 118°15'2 4.2
2017-Oct-12 14:29N 33°44' W 118°16'0 0.0
2017-Oct-11 23:56N 33°44' W 118°16'4 9.7
2017-Oct-11 23:30N 33°40' W 118°17'917.8
2017-Oct-11 22:59N 33°32' W 118°23'715.0
2017-Oct-11 22:30N 33°27' W 118°29'0 0.0
2017-Oct-11 22:00N 33°27' W 118°29'0 0.0
2017-Oct-11 21:30N 33°27' W 118°29'0 0.0
2017-Oct-11 20:55N 33°27' W 118°29'0 0.0
2017-Oct-11 19:36N 33°27' W 118°29'0 0.0
2017-Oct-11 19:24N 33°27' W 118°29'20 1.1
2017-Oct-10 23:57N 33°44' W 118°16'510.9
2017-Oct-10 23:30N 33°39' W 118°18'816.5
2017-Oct-10 23:01N 33°33' W 118°23'812.1
2017-Oct-10 22:22N 33°27' W 118°29'0 0.0
2017-Oct-10 21:56N 33°27' W 118°29'0 0.0
2017-Oct-10 20:33N 33°27' W 118°29'0 0.0
2017-Oct-10 20:28N 33°27' W 118°29'0 0.0
2017-Oct-10 19:08N 33°27' W 118°29'0 0.0
2017-Oct-10 18:44N 33°27' W 118°29'0 0.0
2017-Oct-10 18:29N 33°27' W 118°29'0 0.0
2017-Oct-10 17:15N 33°27' W 118°29'0 0.0
2017-Oct-10 16:57N 33°27' W 118°29'0 0.0
2017-Oct-10 16:30N 33°27' W 118°29'0 0.6
2017-Oct-10 16:00N 33°27' W 118°29'918.5
2017-Oct-10 15:30N 33°33' W 118°21'918.9
2017-Oct-10 15:01N 33°42' W 118°16'2 2.4
2017-Oct-10 14:00N 33°44' W 118°16'0 0.1
2017-Oct-10 13:30N 33°44' W 118°16'0 0.0
2017-Oct-09 23:55N 33°44' W 118°16'  

Dump ship's entire track history